Stillman Valley, Illinois
Current Conditions -  °F | °C
As of 7:54 PM on Friday 31 Oct 2014 (Local Time) from KRFD Reporting Station
Overcast Overcast  
Wind Chill: 28°   Ceiling: 5000
Heat Index: 37°   Visibility: 10mi
Dew Point: 18°   Wind: 14mph
Humidity: 46%   Direction: 360°N
Pressure: 30.4"   Gusts: 22mph
Location:  42.11°N, 89.18°W
Report Text: KRFD 010054Z 36012G19KT 10SM OVC050 03/M08 A3040 RMK AO2 SLP301 T00281078
Loading
Personal Weather Stations






























Interactive Weather Map
Tropical Storm Tracking
New forecast layout! Learn more

10-Day Weather Forecast

Advertisements
Track Severe Weather on mobile